ESNU

Umeå Airport

Umeå, Sweden
METAR ESNU 221750Z 18005KT CAVOK 02/M00 Q1015 R14/09//95
Observed Flight Rules
Apr-22 @ 17:50 UTC (28 minutes ago) Visual Flight Rules
Wind Visibility Clouds
180° at 5 knots 10,000+ meters
  • Clear skies
Temperatures Readings
Current 2°C / 36°F
Dewpoint 0°C / 32°F
Humidity 87%
Altimeter 29.97" Hg
Pressure 1015 hPa
Elevation 14
METAR ESNU 221750Z 18005KT CAVOK 02/M00 Q1015 R14/09//95
Observed Flight Rules
Apr-22 @ 17:50 UTC
(28 minutes ago)
VFR
Wind Visibility
180° at 5 knots 10,000+ meters
Clouds
  • Clear skies
Temperature Dewpoint
2°C / 36°F 0°C / 32°F
Humidity Altimeter Pressure
87% 29.97" Hg 1015 hPa